Time;durP1;ratioP1;P1;durP2;ratioP2;P2;SDS_P1;SDS_P2;PMS_P1;PMS_P2;Temp;Humidity;BMP_temperature;BMP_pressure;BME280_temperature;BME280_humidity;BME280_pressure;Samples;Min_cycle;Max_cycle;Signal;HPM_P1;HPM_P2
2022/12/23 00:02:14;;;;;;;58.15;28.38;;;;;;;8.19;100.00;100158.09;6205493;23;20008;-84
2022/12/23 00:04:39;;;;;;;57.70;28.40;;;;;;;8.25;100.00;100162.22;6206660;23;20004;-85
2022/12/23 00:07:05;;;;;;;60.88;29.67;;;;;;;8.24;100.00;100165.81;6206643;23;20071;-84
2022/12/23 00:09:30;;;;;;;57.17;30.23;;;;;;;8.23;100.00;100156.13;6205098;23;20008;-84
2022/12/23 00:17:23;;;;;;;62.85;30.65;;;;;;;8.21;100.00;100169.47;6205438;23;20127;-84
2022/12/23 00:19:48;;;;;;;59.95;31.10;;;;;;;8.19;100.00;100162.53;6204749;23;20016;-84
2022/12/23 00:22:13;;;;;;;57.95;30.98;;;;;;;8.26;100.00;100169.22;6205845;23;20007;-85
2022/12/23 00:24:39;;;;;;;60.83;32.42;;;;;;;8.24;100.00;100181.72;6212365;23;20009;-85
2022/12/23 00:27:04;;;;;;;64.00;31.90;;;;;;;8.20;100.00;100174.88;6231367;23;20007;-85
2022/12/23 00:29:29;;;;;;;60.83;31.95;;;;;;;8.23;100.00;100188.81;6230196;22;20121;-85
2022/12/23 00:31:55;;;;;;;63.45;30.58;;;;;;;8.20;100.00;100188.97;6228318;22;20027;-83
2022/12/23 00:34:20;;;;;;;63.75;31.15;;;;;;;8.23;100.00;100185.28;6216776;23;20164;-85
2022/12/23 00:36:45;;;;;;;60.03;29.58;;;;;;;8.22;100.00;100192.38;6212040;23;20031;-84
2022/12/23 00:44:40;;;;;;;62.38;31.83;;;;;;;8.19;100.00;100183.72;6209777;23;20027;-84
2022/12/23 00:47:05;;;;;;;60.67;32.13;;;;;;;8.25;100.00;100199.34;6209478;23;20001;-84
2022/12/23 00:49:42;;;;;;;63.40;32.35;;;;;;;8.22;100.00;100202.13;6206860;23;20019;-84
2022/12/23 00:52:14;;;;;;;59.22;32.35;;;;;;;8.14;100.00;100189.28;6205809;23;20001;-85
2022/12/23 00:54:39;;;;;;;62.70;31.10;;;;;;;8.23;100.00;100206.50;6207562;23;20080;-85
2022/12/23 00:57:05;;;;;;;67.93;33.25;;;;;;;8.07;100.00;100187.00;6207542;23;20001;-85
2022/12/23 00:59:30;;;;;;;61.03;32.67;;;;;;;8.22;100.00;100215.41;6209429;23;20501;-85
2022/12/23 01:07:24;;;;;;;66.05;33.17;;;;;;;8.20;100.00;100225.25;6215857;23;20321;-83
2022/12/23 01:09:49;;;;;;;65.00;33.72;;;;;;;8.21;100.00;100226.94;6218006;23;20001;-86
2022/12/23 01:12:15;;;;;;;61.33;32.85;;;;;;;8.22;100.00;100236.59;6231798;22;20064;-85
2022/12/23 01:14:40;;;;;;;63.72;33.83;;;;;;;8.19;100.00;100227.03;6220250;23;20138;-85
2022/12/23 01:17:06;;;;;;;65.50;34.10;;;;;;;8.17;100.00;100233.34;6213199;23;20100;-85
2022/12/23 01:19:32;;;;;;;66.65;34.75;;;;;;;8.21;100.00;100238.41;6204591;23;20008;-85
2022/12/23 01:21:57;;;;;;;69.53;34.30;;;;;;;8.20;100.00;100235.84;6207650;23;20011;-85
2022/12/23 01:24:27;;;;;;;67.70;35.63;;;;;;;8.21;100.00;100234.91;6204820;23;20008;-85
2022/12/23 01:26:52;;;;;;;64.97;36.28;;;;;;;8.21;100.00;100232.25;6203800;23;20004;-84
2022/12/23 01:29:17;;;;;;;69.97;36.63;;;;;;;8.15;100.00;100233.44;6205377;23;20015;-83
2022/12/23 01:31:43;;;;;;;72.07;38.90;;;;;;;8.17;100.00;100234.19;6207293;23;20035;-84
2022/12/23 01:34:09;;;;;;;70.85;37.70;;;;;;;8.22;100.00;100247.22;6207331;23;20008;-84
2022/12/23 01:36:34;;;;;;;75.55;38.78;;;;;;;8.20;100.00;100238.50;6205556;23;20156;-83
2022/12/23 01:39:00;;;;;;;75.43;39.03;;;;;;;8.20;100.00;100239.34;6207664;23;20009;-84
2022/12/23 01:44:52;;;;;;;68.78;37.80;;;;;;;8.13;100.00;100237.06;6206074;23;20424;-84
2022/12/23 01:47:26;;;;;;;72.68;38.15;;;;;;;8.20;100.00;100246.44;6206491;23;20058;-86
2022/12/23 01:50:01;;;;;;;72.38;39.25;;;;;;;8.17;100.00;100250.09;6205160;23;20009;-85
2022/12/23 01:52:28;;;;;;;74.38;37.60;;;;;;;8.09;100.00;100230.22;6200823;23;20005;-85
2022/12/23 01:54:54;;;;;;;71.18;38.60;;;;;;;8.17;100.00;100249.25;6206156;23;20440;-83
2022/12/23 01:57:21;;;;;;;74.63;38.45;;;;;;;8.18;100.00;100254.44;6205237;23;20142;-84
2022/12/23 02:05:18;;;;;;;81.22;39.30;;;;;;;8.15;100.00;100264.34;6203694;23;20023;-84
2022/12/23 02:10:37;;;;;;;76.18;40.75;;;;;;;8.20;100.00;100283.56;6203899;23;20023;-84
2022/12/23 02:13:15;;;;;;;82.38;39.22;;;;;;;8.18;100.00;100286.28;6205328;23;20112;-85
2022/12/23 02:16:17;;;;;;;86.40;41.10;;;;;;;8.17;100.00;100286.34;6203352;23;20013;-85
2022/12/23 02:19:21;;;;;;;78.22;40.72;;;;;;;8.19;100.00;100284.47;6207820;23;20008;-85
2022/12/23 02:22:20;;;;;;;78.65;40.63;;;;;;;8.16;100.00;100272.25;6206279;23;20001;-84
2022/12/23 02:25:10;;;;;;;78.85;41.75;;;;;;;8.16;100.00;100276.69;6191974;23;20120;-84
2022/12/23 02:27:57;;;;;;;83.78;41.38;;;;;;;8.20;100.00;100278.25;6203814;23;20036;-83
2022/12/23 02:30:41;;;;;;;79.45;42.45;;;;;;;8.18;100.00;100280.13;6204965;23;20031;-84
2022/12/23 02:33:28;;;;;;;85.20;43.33;;;;;;;8.19;100.00;100290.66;6205148;23;20381;-85
2022/12/23 02:36:09;;;;;;;81.32;42.60;;;;;;;8.19;100.00;100293.31;6202741;23;20795;-84
2022/12/23 02:38:47;;;;;;;79.68;41.65;;;;;;;8.19;100.00;100292.41;6204078;23;20005;-85
2022/12/23 02:41:21;;;;;;;80.53;42.63;;;;;;;8.19;100.00;100313.63;6204006;23;20008;-83
2022/12/23 02:43:55;;;;;;;79.10;43.10;;;;;;;8.17;100.00;100319.03;6204158;23;20015;-84
2022/12/23 02:46:46;;;;;;;84.45;43.55;;;;;;;8.20;100.00;100321.53;6203181;23;20005;-83
2022/12/23 02:49:22;;;;;;;84.32;44.25;;;;;;;8.16;100.00;100327.91;6203784;23;20028;-84
2022/12/23 02:51:52;;;;;;;84.68;44.53;;;;;;;8.21;100.00;100335.63;6202110;23;20001;-84
2022/12/23 02:54:25;;;;;;;88.55;45.15;;;;;;;8.20;100.00;100337.44;6207272;23;19999;-85
2022/12/23 02:56:52;;;;;;;88.10;46.38;;;;;;;8.13;100.00;100321.91;6228995;22;20072;-84
2022/12/23 02:59:28;;;;;;;86.60;46.00;;;;;;;8.19;100.00;100346.31;6228062;23;20111;-83
2022/12/23 03:01:54;;;;;;;89.63;47.10;;;;;;;8.15;100.00;100330.63;6229489;22;20015;-84
2022/12/23 03:04:20;;;;;;;87.35;47.80;;;;;;;8.19;100.00;100325.13;6225305;23;20015;-84
2022/12/23 03:06:50;;;;;;;83.97;45.13;;;;;;;8.21;100.00;100335.63;6228260;22;20187;-84
2022/12/23 03:09:25;;;;;;;89.45;47.28;;;;;;;8.20;100.00;100337.44;6230436;22;20016;-84
2022/12/23 03:12:09;;;;;;;92.63;48.22;;;;;;;8.20;100.00;100342.75;6215688;23;20008;-83
2022/12/23 03:14:56;;;;;;;91.32;46.78;;;;;;;8.22;100.00;100345.31;6204524;23;20063;-83
2022/12/23 03:17:46;;;;;;;94.05;46.55;;;;;;;8.15;100.00;100339.47;6202654;23;20088;-84
2022/12/23 03:20:38;;;;;;;92.75;47.85;;;;;;;8.20;100.00;100347.19;6203675;23;20011;-84
2022/12/23 03:23:27;;;;;;;89.30;45.08;;;;;;;8.18;100.00;100343.72;6206603;23;20027;-83
2022/12/23 03:26:06;;;;;;;80.10;43.75;;;;;;;8.22;100.00;100342.66;6206946;23;20266;-84
2022/12/23 03:28:48;;;;;;;86.38;45.33;;;;;;;8.19;100.00;100343.69;6207184;23;20345;-85
2022/12/23 03:31:19;;;;;;;79.05;42.95;;;;;;;8.14;100.00;100336.88;6206070;23;20300;-85
2022/12/23 03:33:49;;;;;;;87.82;43.60;;;;;;;8.21;100.00;100338.28;6206408;23;20012;-85
2022/12/23 03:36:23;;;;;;;82.15;43.20;;;;;;;8.15;100.00;100328.84;6207268;23;20008;-85
2022/12/23 03:38:50;;;;;;;88.55;45.63;;;;;;;8.20;100.00;100333.94;6208947;23;20008;-85
2022/12/23 03:41:22;;;;;;;91.53;46.50;;;;;;;8.19;100.00;100337.50;6206565;23;20496;-84
2022/12/23 03:43:59;;;;;;;86.22;43.17;;;;;;;8.12;100.00;100333.44;6204617;23;20004;-84
2022/12/23 03:46:34;;;;;;;84.60;42.40;;;;;;;8.19;100.00;100354.28;6203597;23;20012;-84
2022/12/23 03:49:06;;;;;;;80.97;41.83;;;;;;;8.19;100.00;100334.84;6206013;23;20008;-83
2022/12/23 03:51:38;;;;;;;80.82;42.33;;;;;;;8.14;100.00;100332.41;6204817;23;20330;-83
2022/12/23 03:54:11;;;;;;;85.53;42.42;;;;;;;8.13;100.00;100324.56;6202876;23;20012;-83
2022/12/23 03:56:50;;;;;;;83.78;42.63;;;;;;;8.15;100.00;100336.81;6202705;23;20442;-83
2022/12/23 03:59:24;;;;;;;78.55;41.17;;;;;;;8.15;100.00;100349.19;6203833;23;20637;-85
2022/12/23 04:01:58;;;;;;;85.13;42.92;;;;;;;8.07;100.00;100322.19;6203828;23;20072;-84
2022/12/23 04:04:31;;;;;;;90.20;42.58;;;;;;;8.17;100.00;100339.38;6201397;23;20015;-84
2022/12/23 04:07:09;;;;;;;81.80;40.13;;;;;;;8.08;100.00;100329.22;6203521;23;20016;-84
2022/12/23 04:09:35;;;;;;;88.88;41.45;;;;;;;8.15;100.00;100343.88;6203518;23;20287;-84
2022/12/23 04:12:00;;;;;;;84.22;40.05;;;;;;;8.10;100.00;100341.44;6204864;23;20032;-84
2022/12/23 04:14:26;;;;;;;87.15;40.83;;;;;;;8.15;100.00;100358.00;6202621;23;20496;-85
2022/12/23 04:16:57;;;;;;;85.22;40.92;;;;;;;8.13;100.00;100359.00;6204063;23;20001;-85
2022/12/23 04:19:23;;;;;;;83.50;38.95;;;;;;;8.15;100.00;100360.66;6203306;23;20016;-85
2022/12/23 04:21:48;;;;;;;80.43;38.53;;;;;;;8.15;100.00;100365.09;6205307;23;20009;-85
2022/12/23 04:24:14;;;;;;;84.10;40.30;;;;;;;8.15;100.00;100370.38;6203182;23;20079;-84
2022/12/23 04:26:39;;;;;;;85.15;39.15;;;;;;;8.14;100.00;100371.31;6203089;23;20004;-84
2022/12/23 04:29:04;;;;;;;86.75;38.88;;;;;;;8.01;100.00;100347.19;6205042;23;20012;-85
2022/12/23 04:31:30;;;;;;;75.68;37.03;;;;;;;8.03;100.00;100357.75;6202975;23;20527;-85
2022/12/23 04:33:56;;;;;;;80.65;38.72;;;;;;;8.09;100.00;100368.03;6204503;23;20013;-85
2022/12/23 04:36:21;;;;;;;84.40;38.85;;;;;;;8.13;100.00;100372.25;6203523;23;20028;-85
2022/12/23 04:38:47;;;;;;;78.70;38.25;;;;;;;8.04;100.00;100362.97;6205026;23;20020;-84
2022/12/23 04:41:12;;;;;;;79.65;38.05;;;;;;;8.10;100.00;100375.06;6204289;23;20008;-83
2022/12/23 04:43:37;;;;;;;83.80;38.45;;;;;;;8.12;100.00;100379.38;6200400;23;20198;-83
2022/12/23 04:46:03;;;;;;;82.80;37.58;;;;;;;8.12;100.00;100375.84;6203547;23;20015;-84
2022/12/23 04:48:28;;;;;;;76.97;35.80;;;;;;;8.12;100.00;100363.47;6202850;23;20001;-84
2022/12/23 04:50:53;;;;;;;87.85;37.03;;;;;;;8.12;100.00;100370.56;6203771;23;20063;-84
2022/12/23 04:53:19;;;;;;;82.78;37.15;;;;;;;8.13;100.00;100377.56;6196232;23;20017;-82
2022/12/23 04:55:48;;;;;;;84.72;36.70;;;;;;;7.90;100.00;100349.50;6205247;23;20004;-82
2022/12/23 04:58:14;;;;;;;81.85;37.97;;;;;;;8.11;100.00;100368.81;6208529;23;20607;-83
2022/12/23 05:00:39;;;;;;;87.15;39.03;;;;;;;8.11;100.00;100364.41;6205161;23;20039;-83
2022/12/23 05:03:04;;;;;;;84.75;38.55;;;;;;;7.99;100.00;100334.03;6206673;23;20204;-84
2022/12/23 05:05:30;;;;;;;86.28;38.60;;;;;;;8.04;100.00;100341.75;6207859;23;20034;-84
2022/12/23 05:08:02;;;;;;;76.03;38.58;;;;;;;8.11;100.00;100356.44;6207240;23;20012;-84
2022/12/23 05:10:27;;;;;;;86.05;40.42;;;;;;;8.09;100.00;100345.03;6207113;23;20015;-82
2022/12/23 05:12:53;;;;;;;88.47;41.83;;;;;;;8.00;100.00;100337.53;6204591;23;20012;-83
2022/12/23 05:15:18;;;;;;;89.70;41.60;;;;;;;8.07;100.00;100354.00;6207276;23;20362;-84
2022/12/23 05:17:43;;;;;;;89.38;40.65;;;;;;;8.09;100.00;100353.00;6207336;23;20449;-83
2022/12/23 05:20:09;;;;;;;88.00;42.08;;;;;;;8.08;100.00;100367.19;6208548;23;20004;-83
2022/12/23 05:22:34;;;;;;;88.90;42.00;;;;;;;8.08;100.00;100376.94;6204505;23;20535;-83
2022/12/23 05:24:59;;;;;;;86.30;41.50;;;;;;;8.05;100.00;100380.56;6206460;23;20020;-83
2022/12/23 05:27:24;;;;;;;92.63;43.05;;;;;;;8.00;100.00;100377.28;6205226;23;20039;-84
2022/12/23 05:29:50;;;;;;;88.28;41.50;;;;;;;8.05;100.00;100404.44;6205995;23;20016;-84
2022/12/23 05:32:15;;;;;;;97.03;43.58;;;;;;;8.05;100.00;100399.13;6203641;23;20016;-84
2022/12/23 05:34:40;;;;;;;83.50;43.53;;;;;;;8.03;100.00;100406.31;6204583;23;20012;-84
2022/12/23 05:37:06;;;;;;;85.35;42.00;;;;;;;8.02;100.00;100403.72;6205899;23;20011;-85
2022/12/23 05:39:31;;;;;;;96.10;43.50;;;;;;;8.04;100.00;100407.16;6205370;23;20047;-84
2022/12/23 05:41:56;;;;;;;91.57;42.50;;;;;;;8.05;100.00;100408.88;6205027;23;20024;-84
2022/12/23 05:44:21;;;;;;;97.50;44.20;;;;;;;8.03;100.00;100410.75;6202010;23;20337;-83
2022/12/23 05:46:47;;;;;;;99.18;44.65;;;;;;;7.91;100.00;100385.69;6206484;23;20001;-84
2022/12/23 05:49:12;;;;;;;95.15;43.92;;;;;;;8.01;100.00;100412.59;6208818;23;20007;-84
2022/12/23 05:51:37;;;;;;;81.90;40.17;;;;;;;7.97;100.00;100399.50;6207761;23;20605;-83
2022/12/23 05:54:03;;;;;;;88.97;41.72;;;;;;;8.01;100.00;100402.00;6210671;23;20013;-85
2022/12/23 05:56:28;;;;;;;90.40;41.05;;;;;;;7.98;100.00;100393.28;6209761;23;20012;-85
2022/12/23 05:58:53;;;;;;;97.93;43.58;;;;;;;7.97;100.00;100388.88;6211022;23;20421;-85
2022/12/23 06:01:19;;;;;;;88.32;42.15;;;;;;;7.93;100.00;100383.81;6207193;23;20024;-84
2022/12/23 06:03:44;;;;;;;95.90;41.88;;;;;;;7.84;100.00;100358.59;6208817;23;20000;-85
2022/12/23 06:06:09;;;;;;;90.55;42.35;;;;;;;7.96;100.00;100388.97;6206530;23;20418;-84
2022/12/23 06:08:35;;;;;;;93.00;44.40;;;;;;;7.96;100.00;100384.53;6206855;23;20001;-84
2022/12/23 06:11:03;;;;;;;95.95;42.75;;;;;;;7.94;100.00;100377.56;6208021;23;20001;-85
2022/12/23 06:13:29;;;;;;;92.57;41.63;;;;;;;7.93;100.00;100375.84;6205447;23;20083;-84
2022/12/23 06:15:54;;;;;;;86.93;39.70;;;;;;;7.90;100.00;100360.09;6208233;23;20555;-85
2022/12/23 06:18:19;;;;;;;95.15;42.15;;;;;;;7.92;100.00;100363.56;6206267;23;20055;-85
2022/12/23 06:20:46;;;;;;;94.15;41.03;;;;;;;7.87;100.00;100362.91;6206441;23;20112;-84
2022/12/23 06:23:12;;;;;;;91.22;41.58;;;;;;;7.89;100.00;100355.75;6207029;23;20004;-84
2022/12/23 06:25:37;;;;;;;97.95;41.88;;;;;;;7.86;100.00;100356.75;6205025;23;20009;-84
2022/12/23 06:28:02;;;;;;;95.10;42.35;;;;;;;7.84;100.00;100350.66;6208575;23;20083;-85
2022/12/23 06:30:28;;;;;;;103.50;43.20;;;;;;;7.87;100.00;100362.91;6206612;23;20064;-84
2022/12/23 06:32:53;;;;;;;93.30;41.55;;;;;;;7.88;100.00;100367.28;6205874;23;20040;-85
2022/12/23 06:35:18;;;;;;;94.07;41.53;;;;;;;7.89;100.00;100364.53;6205860;23;20718;-84
2022/12/23 06:37:44;;;;;;;95.95;41.85;;;;;;;7.91;100.00;100367.13;6205593;23;20000;-83
2022/12/23 06:40:10;;;;;;;101.35;41.72;;;;;;;7.89;100.00;100369.84;6206752;23;20434;-84
2022/12/23 06:42:35;;;;;;;98.95;41.22;;;;;;;7.84;100.00;100360.41;6207998;23;20014;-84
2022/12/23 06:45:00;;;;;;;98.45;40.72;;;;;;;7.91;100.00;100383.91;6209142;23;20011;-84
2022/12/23 06:47:25;;;;;;;95.30;41.33;;;;;;;7.90;100.00;100379.53;6224871;23;20002;-84
2022/12/23 06:49:51;;;;;;;98.38;41.78;;;;;;;7.90;100.00;100386.59;6231630;22;20056;-83
2022/12/23 06:52:16;;;;;;;97.70;41.97;;;;;;;7.90;100.00;100402.50;6223774;23;20052;-84
2022/12/23 06:54:41;;;;;;;95.60;41.40;;;;;;;7.89;100.00;100406.94;6228730;23;20132;-85
2022/12/23 06:57:07;;;;;;;97.28;41.97;;;;;;;7.83;100.00;100390.50;6217437;23;20009;-84
2022/12/23 06:59:32;;;;;;;101.20;41.92;;;;;;;7.90;100.00;100418.41;6212630;23;20358;-84
2022/12/23 07:01:57;;;;;;;94.60;41.17;;;;;;;7.90;100.00;100427.22;6211911;23;20016;-84
2022/12/23 07:04:23;;;;;;;97.45;41.72;;;;;;;7.84;100.00;100414.25;6213226;23;20047;-83
2022/12/23 07:06:48;;;;;;;105.00;42.97;;;;;;;7.86;100.00;100424.75;6213834;23;20012;-84
2022/12/23 07:09:13;;;;;;;99.95;41.97;;;;;;;7.83;100.00;100432.88;6212137;23;20083;-84
2022/12/23 07:11:39;;;;;;;98.10;41.70;;;;;;;7.83;100.00;100444.34;6210103;23;20008;-84
2022/12/23 07:14:04;;;;;;;100.32;42.20;;;;;;;7.90;100.00;100456.38;6212413;23;20092;-83
2022/12/23 07:16:29;;;;;;;100.85;42.78;;;;;;;7.82;100.00;100424.06;6210064;23;20111;-85
2022/12/23 07:18:54;;;;;;;109.43;44.72;;;;;;;7.87;100.00;100430.00;6211846;23;20009;-85
2022/12/23 07:21:20;;;;;;;105.07;42.53;;;;;;;7.85;100.00;100429.22;6209492;23;20008;-86
2022/12/23 07:23:46;;;;;;;110.28;44.85;;;;;;;7.88;100.00;100425.56;6211820;23;20016;-86
2022/12/23 07:26:12;;;;;;;118.28;47.13;;;;;;;7.87;100.00;100423.84;6207434;23;20111;-85
2022/12/23 07:28:37;;;;;;;120.75;46.80;;;;;;;7.81;100.00;100417.03;6210611;23;20025;-86
2022/12/23 07:31:05;;;;;;;116.38;45.67;;;;;;;7.87;100.00;100427.38;6210509;23;20505;-85
2022/12/23 07:33:30;;;;;;;120.85;45.10;;;;;;;7.81;100.00;100414.38;6217380;23;20024;-85
2022/12/23 07:35:59;;;;;;;106.72;43.67;;;;;;;7.87;100.00;100424.72;6219381;23;20013;-86
2022/12/23 08:14:20;;;;;;;80.97;35.80;;;;;;;7.55;100.00;100340.56;6206949;23;20055;-86
2022/12/23 08:16:46;;;;;;;86.57;36.58;;;;;;;7.83;100.00;100391.34;6207668;23;20009;-86
2022/12/23 08:19:12;;;;;;;85.30;38.05;;;;;;;7.74;100.00;100381.19;6209368;23;20031;-85
2022/12/23 08:21:37;;;;;;;84.10;36.75;;;;;;;7.74;100.00;100383.81;6206761;23;20016;-86
2022/12/23 08:24:02;;;;;;;88.03;36.45;;;;;;;7.77;100.00;100396.06;6206957;23;20016;-86
2022/12/23 08:26:28;;;;;;;84.85;36.30;;;;;;;7.80;100.00;100395.91;6206045;23;20013;-87
2022/12/23 08:28:53;;;;;;;81.43;35.33;;;;;;;7.76;100.00;100391.69;6206935;23;20746;-86
2022/12/23 08:31:38;;;;;;;80.07;33.63;;;;;;;7.74;100.00;100395.28;6204343;23;20023;-86
2022/12/23 08:34:03;;;;;;;84.35;35.58;;;;;;;7.73;100.00;100400.63;6204803;23;20325;-86
2022/12/23 08:36:34;;;;;;;84.15;36.28;;;;;;;7.74;100.00;100410.31;6202532;23;20088;-86
2022/12/23 08:39:03;;;;;;;74.07;33.97;;;;;;;7.77;100.00;100407.50;6206921;23;20067;-87
2022/12/23 08:41:31;;;;;;;81.07;34.08;;;;;;;7.82;100.00;100402.88;6206161;23;20012;-87
2022/12/23 08:43:57;;;;;;;72.55;31.73;;;;;;;7.82;100.00;100394.94;6209787;23;20016;-85
2022/12/23 08:46:23;;;;;;;77.03;32.55;;;;;;;7.83;100.00;100388.69;6207919;23;20109;-86
2022/12/23 08:48:49;;;;;;;75.20;32.05;;;;;;;7.82;100.00;100383.47;6206640;23;20009;-86
2022/12/23 08:51:17;;;;;;;68.35;31.10;;;;;;;7.82;100.00;100386.97;6207663;23;20019;-86
2022/12/23 08:53:43;;;;;;;64.32;29.63;;;;;;;7.83;100.00;100380.75;6207352;23;20316;-86
2022/12/23 08:56:20;;;;;;;69.93;29.65;;;;;;;7.81;100.00;100372.00;6209961;23;20472;-86
2022/12/23 08:58:47;;;;;;;64.45;28.38;;;;;;;7.81;100.00;100374.63;6208084;23;20013;-87
2022/12/23 09:01:16;;;;;;;58.92;27.38;;;;;;;7.80;100.00;100380.88;6208637;23;20035;-87
2022/12/23 09:03:42;;;;;;;69.13;28.73;;;;;;;7.79;100.00;100375.66;6207315;23;20008;-86
2022/12/23 09:06:11;;;;;;;60.05;26.25;;;;;;;7.78;100.00;100380.09;6206393;23;20357;-85
2022/12/23 09:08:37;;;;;;;55.25;25.45;;;;;;;7.79;100.00;100365.06;6206674;23;20000;-86
2022/12/23 09:11:02;;;;;;;52.55;24.60;;;;;;;7.72;100.00;100344.16;6207186;23;20437;-86
2022/12/23 09:13:28;;;;;;;56.70;25.40;;;;;;;7.74;100.00;100338.78;6205036;23;20008;-85
2022/12/23 09:15:53;;;;;;;58.55;24.77;;;;;;;7.79;100.00;100342.06;6209693;23;20024;-85
2022/12/23 09:18:19;;;;;;;56.88;25.42;;;;;;;7.75;100.00;100337.84;6207190;23;20068;-85
2022/12/23 09:20:44;;;;;;;51.75;23.25;;;;;;;7.76;100.00;100334.25;6209945;23;20008;-86
2022/12/23 09:23:09;;;;;;;54.17;23.80;;;;;;;7.69;100.00;100327.53;6212285;23;20004;-86
2022/12/23 09:25:35;;;;;;;52.70;24.90;;;;;;;7.77;100.00;100335.97;6214494;23;20008;-85
2022/12/23 09:28:01;;;;;;;55.30;24.48;;;;;;;7.77;100.00;100321.88;6209433;23;20000;-86
2022/12/23 09:30:27;;;;;;;57.47;24.95;;;;;;;7.72;100.00;100322.94;6205429;23;20019;-84
2022/12/23 09:32:53;;;;;;;47.05;22.85;;;;;;;7.77;100.00;100325.38;6206971;23;20012;-86
2022/12/23 09:35:18;;;;;;;53.60;24.30;;;;;;;7.74;100.00;100317.59;6206787;23;20495;-86
2022/12/23 09:37:44;;;;;;;53.70;23.35;;;;;;;7.75;100.00;100321.97;6204588;23;20008;-85
2022/12/23 09:40:14;;;;;;;48.53;23.02;;;;;;;7.64;100.00;100297.75;6207638;23;20013;-86
2022/12/23 09:42:42;;;;;;;51.45;23.13;;;;;;;7.80;100.00;100316.44;6208091;23;20028;-84
2022/12/23 09:45:15;;;;;;;48.88;24.17;;;;;;;7.76;100.00;100313.06;6209728;23;19992;-85
2022/12/23 09:47:42;;;;;;;49.28;23.48;;;;;;;7.80;100.00;100311.13;6209757;23;20032;-85
2022/12/23 09:50:19;;;;;;;50.72;22.42;;;;;;;7.79;100.00;100299.69;6206106;23;20083;-86
2022/12/23 09:53:13;;;;;;;54.13;22.55;;;;;;;7.83;100.00;100295.09;6209302;23;20008;-87
2022/12/23 09:55:48;;;;;;;53.03;22.08;;;;;;;7.84;100.00;100297.66;6206050;23;19992;-87
2022/12/23 09:59:01;;;;;;;45.60;21.52;;;;;;;7.85;100.00;100293.22;6205800;23;20016;-89
2022/12/23 10:01:36;;;;;;;46.58;22.00;;;;;;;7.86;100.00;100301.13;6204734;23;20063;-85
2022/12/23 10:04:13;;;;;;;42.95;21.60;;;;;;;7.87;100.00;100305.47;6206113;23;20008;-89
2022/12/23 10:06:40;;;;;;;44.45;21.23;;;;;;;7.88;100.00;100315.13;6205906;23;20035;-83
2022/12/23 10:09:08;;;;;;;47.25;20.95;;;;;;;7.85;100.00;100312.63;6205044;23;20016;-85
2022/12/23 10:11:42;;;;;;;42.13;20.33;;;;;;;7.89;100.00;100311.53;6202974;23;20784;-86
2022/12/23 10:14:23;;;;;;;39.85;20.48;;;;;;;7.90;100.00;100300.03;6205007;23;20087;-86
2022/12/23 10:16:56;;;;;;;40.22;18.63;;;;;;;7.86;100.00;100292.28;6204607;23;20008;-87
2022/12/23 10:19:27;;;;;;;34.40;18.92;;;;;;;7.89;100.00;100284.19;6204034;23;20066;-83
2022/12/23 10:22:02;;;;;;;34.63;18.77;;;;;;;7.80;100.00;100271.41;6207660;23;20031;-83
2022/12/23 10:24:48;;;;;;;37.45;19.17;;;;;;;7.90;100.00;100273.53;6207242;23;20060;-84
2022/12/23 10:27:34;;;;;;;37.13;19.52;;;;;;;7.92;100.00;100273.47;6204145;23;20005;-84
2022/12/23 10:30:11;;;;;;;37.45;18.77;;;;;;;7.81;100.00;100236.88;6206143;23;20017;-82
2022/12/23 10:32:46;;;;;;;40.88;18.40;;;;;;;8.01;100.00;100251.78;6205078;23;20001;-83
2022/12/23 10:35:37;;;;;;;32.60;17.23;;;;;;;8.07;100.00;100253.28;6206787;23;20412;-84
2022/12/23 10:38:11;;;;;;;35.40;17.73;;;;;;;8.07;100.00;100237.38;6202997;23;20027;-84
2022/12/23 10:40:49;;;;;;;35.72;18.08;;;;;;;8.09;100.00;100223.13;6202878;23;20004;-84
2022/12/23 10:43:52;;;;;;;31.58;17.13;;;;;;;8.16;100.00;100231.63;6205061;23;20058;-84
2022/12/23 10:46:38;;;;;;;33.17;17.02;;;;;;;8.18;100.00;100233.25;6203839;23;20103;-81
2022/12/23 10:49:25;;;;;;;30.65;16.27;;;;;;;8.16;100.00;100229.84;6203452;23;20039;-83
2022/12/23 10:52:02;;;;;;;30.90;16.75;;;;;;;8.08;100.00;100216.09;6204245;23;20004;-82
2022/12/23 10:54:35;;;;;;;28.70;15.10;;;;;;;8.01;100.00;100203.25;6205947;23;20015;-84
2022/12/23 10:57:02;;;;;;;29.60;16.40;;;;;;;8.03;100.00;100207.53;6206286;23;20330;-83
2022/12/23 10:59:30;;;;;;;28.25;14.95;;;;;;;7.99;100.00;100201.53;6204804;23;20001;-83
2022/12/23 11:02:34;;;;;;;30.58;15.77;;;;;;;8.02;100.00;100194.34;6203185;23;20430;-84
2022/12/23 11:04:59;;;;;;;27.30;15.02;;;;;;;8.02;100.00;100174.00;6206555;23;20008;-83
2022/12/23 11:07:28;;;;;;;24.00;14.68;;;;;;;8.06;100.00;100164.94;6203540;23;20009;-84
2022/12/23 11:09:56;;;;;;;26.42;14.30;;;;;;;8.11;100.00;100157.66;6204240;23;20265;-85
2022/12/23 11:12:36;;;;;;;28.30;14.95;;;;;;;8.13;100.00;100137.22;6204047;23;20020;-84
2022/12/23 11:15:02;;;;;;;26.45;15.40;;;;;;;8.28;100.00;100143.50;6204912;23;20095;-84
2022/12/23 11:17:29;;;;;;;30.05;14.88;;;;;;;8.25;100.00;100127.75;6204652;23;20005;-83
2022/12/23 11:20:15;;;;;;;26.83;14.25;;;;;;;8.22;100.00;100112.00;6206121;23;20004;-84
2022/12/23 11:23:00;;;;;;;29.73;14.07;;;;;;;8.24;100.00;100136.66;6205472;23;20055;-83
2022/12/23 11:25:41;;;;;;;25.08;13.77;;;;;;;8.19;100.00;100146.63;6203844;23;20333;-83
2022/12/23 11:28:06;;;;;;;25.90;13.07;;;;;;;8.16;100.00;100147.66;6206163;23;20377;-84
2022/12/23 11:30:37;;;;;;;29.73;14.25;;;;;;;8.08;100.00;100135.75;6202859;23;20008;-84
2022/12/23 11:33:02;;;;;;;28.40;13.68;;;;;;;7.97;100.00;100121.22;6205911;23;20004;-84
2022/12/23 11:35:34;;;;;;;25.95;13.40;;;;;;;8.01;100.00;100124.59;6205846;23;20064;-84
2022/12/23 11:38:01;;;;;;;21.98;12.40;;;;;;;7.97;100.00;100117.72;6206008;23;20473;-84
2022/12/23 11:40:30;;;;;;;22.95;12.35;;;;;;;7.94;100.00;100113.47;6217226;23;20012;-84
2022/12/23 11:43:00;;;;;;;29.10;12.90;;;;;;;7.89;100.00;100099.56;6221404;23;19988;-84
2022/12/23 11:45:28;;;;;;;24.48;12.63;;;;;;;7.90;100.00;100105.72;6218935;23;19984;-84
2022/12/23 11:47:55;;;;;;;26.88;13.02;;;;;;;7.89;100.00;100098.72;6213198;23;20028;-84
2022/12/23 11:50:38;;;;;;;30.65;12.77;;;;;;;7.91;100.00;100094.22;6207076;23;20008;-85
2022/12/23 11:53:13;;;;;;;24.27;13.35;;;;;;;7.88;100.00;100079.31;6212646;23;20039;-86
2022/12/23 11:55:59;;;;;;;33.25;13.90;;;;;;;7.82;100.00;100066.41;6221642;23;20077;-84
2022/12/23 11:58:27;;;;;;;27.40;13.45;;;;;;;7.85;100.00;100060.94;6222190;23;20322;-87
2022/12/23 12:00:59;;;;;;;25.33;13.30;;;;;;;7.81;100.00;100048.78;6209122;23;20020;-87
2022/12/23 12:03:34;;;;;;;26.58;13.00;;;;;;;7.80;100.00;100043.56;6204453;23;20542;-85
2022/12/23 12:06:02;;;;;;;28.23;12.93;;;;;;;7.85;100.00;100039.72;6203877;23;20350;-87
2022/12/23 12:11:16;;;;;;;29.08;13.98;;;;;;;7.87;100.00;100026.41;6181587;23;20245;-86
2022/12/23 12:13:46;;;;;;;27.90;14.32;;;;;;;7.85;100.00;100012.38;6202392;23;20009;-86
2022/12/23 12:16:27;;;;;;;28.13;14.55;;;;;;;7.86;100.00;100009.66;6203519;23;20096;-86
2022/12/23 12:18:56;;;;;;;28.38;14.23;;;;;;;7.84;100.00;100008.88;6204174;23;20106;-86
2022/12/23 12:21:27;;;;;;;32.05;14.55;;;;;;;7.87;100.00;99995.47;6203124;23;20113;-86
2022/12/23 12:24:03;;;;;;;31.48;14.60;;;;;;;7.90;100.00;99987.38;6203000;23;20350;-87
2022/12/23 12:26:31;;;;;;;35.42;15.10;;;;;;;7.95;100.00;99981.81;6200958;23;20009;-87
2022/12/23 12:29:08;;;;;;;32.70;15.40;;;;;;;7.95;100.00;99982.69;6204958;23;20008;-86
2022/12/23 12:31:41;;;;;;;27.30;14.07;;;;;;;7.99;100.00;99989.53;6205314;23;20036;-87